sensor_id;sensor_type;location;lat;lon;timestamp;P1;durP1;ratioP1;P2;durP2;ratioP2
77522;SDS011;66637;-29.628;-49.938;2024-03-02T00:00:42;80.45;;;10.43;;
77522;SDS011;66637;-29.628;-49.938;2024-03-02T00:03:13;82.68;;;10.85;;
77522;SDS011;66637;-29.628;-49.938;2024-03-02T00:05:44;55.90;;;7.07;;
77522;SDS011;66637;-29.628;-49.938;2024-03-02T00:08:24;57.05;;;6.65;;
77522;SDS011;66637;-29.628;-49.938;2024-03-02T00:10:58;82.47;;;8.60;;
77522;SDS011;66637;-29.628;-49.938;2024-03-02T00:13:31;80.65;;;10.90;;
77522;SDS011;66637;-29.628;-49.938;2024-03-02T00:16:03;44.17;;;6.28;;
77522;SDS011;66637;-29.628;-49.938;2024-03-02T00:18:37;77.25;;;9.68;;
77522;SDS011;66637;-29.628;-49.938;2024-03-02T00:21:08;51.85;;;6.38;;
77522;SDS011;66637;-29.628;-49.938;2024-03-02T00:23:41;64.50;;;7.78;;
77522;SDS011;66637;-29.628;-49.938;2024-03-02T00:26:12;94.07;;;10.07;;
77522;SDS011;66637;-29.628;-49.938;2024-03-02T00:28:45;58.65;;;5.80;;
77522;SDS011;66637;-29.628;-49.938;2024-03-02T00:31:18;62.25;;;6.82;;
77522;SDS011;66637;-29.628;-49.938;2024-03-02T00:33:50;58.05;;;6.47;;
77522;SDS011;66637;-29.628;-49.938;2024-03-02T00:36:22;64.72;;;7.38;;
77522;SDS011;66637;-29.628;-49.938;2024-03-02T00:38:57;81.28;;;10.20;;
77522;SDS011;66637;-29.628;-49.938;2024-03-02T00:41:29;44.42;;;4.97;;
77522;SDS011;66637;-29.628;-49.938;2024-03-02T00:49:12;57.65;;;6.75;;
77522;SDS011;66637;-29.628;-49.938;2024-03-02T00:54:25;44.20;;;5.90;;
77522;SDS011;66637;-29.628;-49.938;2024-03-02T00:56:59;94.50;;;12.18;;
77522;SDS011;66637;-29.628;-49.938;2024-03-02T00:59:30;66.65;;;8.32;;
77522;SDS011;66637;-29.628;-49.938;2024-03-02T01:02:02;85.50;;;8.70;;
77522;SDS011;66637;-29.628;-49.938;2024-03-02T01:04:33;55.78;;;6.30;;
77522;SDS011;66637;-29.628;-49.938;2024-03-02T01:07:06;55.28;;;6.60;;
77522;SDS011;66637;-29.628;-49.938;2024-03-02T01:09:37;50.92;;;5.65;;
77522;SDS011;66637;-29.628;-49.938;2024-03-02T01:12:08;66.30;;;8.82;;
77522;SDS011;66637;-29.628;-49.938;2024-03-02T01:14:40;43.95;;;5.95;;
77522;SDS011;66637;-29.628;-49.938;2024-03-02T01:17:10;53.40;;;5.82;;
77522;SDS011;66637;-29.628;-49.938;2024-03-02T01:19:43;45.63;;;5.15;;
77522;SDS011;66637;-29.628;-49.938;2024-03-02T01:22:15;41.88;;;5.53;;
77522;SDS011;66637;-29.628;-49.938;2024-03-02T01:24:50;48.22;;;5.47;;
77522;SDS011;66637;-29.628;-49.938;2024-03-02T01:27:20;66.50;;;8.77;;
77522;SDS011;66637;-29.628;-49.938;2024-03-02T01:29:53;63.05;;;6.60;;
77522;SDS011;66637;-29.628;-49.938;2024-03-02T01:32:25;51.10;;;5.32;;
77522;SDS011;66637;-29.628;-49.938;2024-03-02T01:34:57;47.60;;;6.22;;
77522;SDS011;66637;-29.628;-49.938;2024-03-02T01:37:29;48.08;;;6.18;;
77522;SDS011;66637;-29.628;-49.938;2024-03-02T01:40:00;65.63;;;7.03;;
77522;SDS011;66637;-29.628;-49.938;2024-03-02T01:42:30;47.42;;;7.10;;
77522;SDS011;66637;-29.628;-49.938;2024-03-02T01:45:02;62.47;;;7.10;;
77522;SDS011;66637;-29.628;-49.938;2024-03-02T01:47:34;48.05;;;5.57;;
77522;SDS011;66637;-29.628;-49.938;2024-03-02T01:50:05;59.65;;;7.07;;
77522;SDS011;66637;-29.628;-49.938;2024-03-02T01:52:37;58.35;;;7.35;;
77522;SDS011;66637;-29.628;-49.938;2024-03-02T01:55:09;58.70;;;8.20;;
77522;SDS011;66637;-29.628;-49.938;2024-03-02T01:57:40;49.75;;;6.07;;
77522;SDS011;66637;-29.628;-49.938;2024-03-02T02:00:12;54.22;;;6.10;;
77522;SDS011;66637;-29.628;-49.938;2024-03-02T02:02:44;48.60;;;6.88;;
77522;SDS011;66637;-29.628;-49.938;2024-03-02T02:05:16;64.03;;;8.77;;
77522;SDS011;66637;-29.628;-49.938;2024-03-02T02:07:48;62.20;;;7.65;;
77522;SDS011;66637;-29.628;-49.938;2024-03-02T02:10:19;48.25;;;5.63;;
77522;SDS011;66637;-29.628;-49.938;2024-03-02T02:12:50;50.80;;;6.43;;
77522;SDS011;66637;-29.628;-49.938;2024-03-02T02:15:29;46.28;;;5.53;;
77522;SDS011;66637;-29.628;-49.938;2024-03-02T02:18:01;67.63;;;7.68;;
77522;SDS011;66637;-29.628;-49.938;2024-03-02T02:20:34;44.30;;;5.28;;
77522;SDS011;66637;-29.628;-49.938;2024-03-02T02:23:06;63.17;;;7.70;;
77522;SDS011;66637;-29.628;-49.938;2024-03-02T02:25:41;59.28;;;6.30;;
77522;SDS011;66637;-29.628;-49.938;2024-03-02T02:28:14;54.13;;;6.63;;
77522;SDS011;66637;-29.628;-49.938;2024-03-02T02:30:48;57.78;;;6.68;;
77522;SDS011;66637;-29.628;-49.938;2024-03-02T02:33:21;47.55;;;5.70;;
77522;SDS011;66637;-29.628;-49.938;2024-03-02T02:35:55;78.07;;;8.07;;
77522;SDS011;66637;-29.628;-49.938;2024-03-02T02:38:26;56.42;;;6.75;;
77522;SDS011;66637;-29.628;-49.938;2024-03-02T02:41:00;69.07;;;6.55;;
77522;SDS011;66637;-29.628;-49.938;2024-03-02T02:43:31;61.33;;;7.68;;
77522;SDS011;66637;-29.628;-49.938;2024-03-02T02:46:03;45.80;;;5.47;;
77522;SDS011;66637;-29.628;-49.938;2024-03-02T02:48:35;69.13;;;7.30;;
77522;SDS011;66637;-29.628;-49.938;2024-03-02T02:51:06;71.32;;;9.30;;
77522;SDS011;66637;-29.628;-49.938;2024-03-02T02:53:37;71.60;;;8.82;;
77522;SDS011;66637;-29.628;-49.938;2024-03-02T02:56:10;62.72;;;7.68;;
77522;SDS011;66637;-29.628;-49.938;2024-03-02T02:58:40;57.90;;;7.72;;
77522;SDS011;66637;-29.628;-49.938;2024-03-02T03:01:12;76.60;;;8.20;;
77522;SDS011;66637;-29.628;-49.938;2024-03-02T03:03:43;70.63;;;7.53;;
77522;SDS011;66637;-29.628;-49.938;2024-03-02T03:06:14;57.05;;;6.30;;
77522;SDS011;66637;-29.628;-49.938;2024-03-02T03:08:46;62.42;;;6.75;;
77522;SDS011;66637;-29.628;-49.938;2024-03-02T03:11:16;55.40;;;7.00;;
77522;SDS011;66637;-29.628;-49.938;2024-03-02T03:13:49;50.50;;;6.35;;
77522;SDS011;66637;-29.628;-49.938;2024-03-02T03:16:20;59.60;;;6.85;;
77522;SDS011;66637;-29.628;-49.938;2024-03-02T03:18:52;90.20;;;10.25;;
77522;SDS011;66637;-29.628;-49.938;2024-03-02T03:21:23;76.90;;;9.15;;
77522;SDS011;66637;-29.628;-49.938;2024-03-02T03:23:58;63.00;;;6.57;;
77522;SDS011;66637;-29.628;-49.938;2024-03-02T03:26:29;76.20;;;8.73;;
77522;SDS011;66637;-29.628;-49.938;2024-03-02T03:29:00;67.10;;;8.02;;
77522;SDS011;66637;-29.628;-49.938;2024-03-02T03:31:32;60.50;;;6.75;;
77522;SDS011;66637;-29.628;-49.938;2024-03-02T03:34:02;42.22;;;5.43;;
77522;SDS011;66637;-29.628;-49.938;2024-03-02T03:36:33;59.45;;;7.25;;
77522;SDS011;66637;-29.628;-49.938;2024-03-02T03:39:07;52.72;;;6.25;;
77522;SDS011;66637;-29.628;-49.938;2024-03-02T03:41:38;54.75;;;6.60;;
77522;SDS011;66637;-29.628;-49.938;2024-03-02T03:44:10;46.10;;;5.60;;
77522;SDS011;66637;-29.628;-49.938;2024-03-02T03:46:41;52.92;;;5.93;;
77522;SDS011;66637;-29.628;-49.938;2024-03-02T03:49:12;51.00;;;5.28;;
77522;SDS011;66637;-29.628;-49.938;2024-03-02T03:51:43;43.20;;;5.00;;
77522;SDS011;66637;-29.628;-49.938;2024-03-02T03:54:13;39.17;;;5.28;;
77522;SDS011;66637;-29.628;-49.938;2024-03-02T03:56:43;40.78;;;5.38;;
77522;SDS011;66637;-29.628;-49.938;2024-03-02T03:59:14;52.72;;;6.03;;
77522;SDS011;66637;-29.628;-49.938;2024-03-02T04:01:46;66.22;;;7.50;;
77522;SDS011;66637;-29.628;-49.938;2024-03-02T04:04:17;54.10;;;5.82;;
77522;SDS011;66637;-29.628;-49.938;2024-03-02T04:06:48;47.53;;;6.43;;
77522;SDS011;66637;-29.628;-49.938;2024-03-02T04:09:19;57.00;;;6.38;;
77522;SDS011;66637;-29.628;-49.938;2024-03-02T04:11:50;48.92;;;6.45;;
77522;SDS011;66637;-29.628;-49.938;2024-03-02T04:14:21;33.17;;;3.80;;
77522;SDS011;66637;-29.628;-49.938;2024-03-02T04:16:52;38.88;;;4.25;;
77522;SDS011;66637;-29.628;-49.938;2024-03-02T04:19:25;45.05;;;5.63;;
77522;SDS011;66637;-29.628;-49.938;2024-03-02T04:21:58;84.22;;;8.60;;
77522;SDS011;66637;-29.628;-49.938;2024-03-02T04:24:52;49.53;;;6.50;;
77522;SDS011;66637;-29.628;-49.938;2024-03-02T04:27:25;65.28;;;7.72;;
77522;SDS011;66637;-29.628;-49.938;2024-03-02T04:29:55;46.72;;;5.72;;
77522;SDS011;66637;-29.628;-49.938;2024-03-02T04:32:29;49.45;;;5.78;;
77522;SDS011;66637;-29.628;-49.938;2024-03-02T04:35:00;41.83;;;5.28;;
77522;SDS011;66637;-29.628;-49.938;2024-03-02T04:37:33;52.13;;;5.60;;
77522;SDS011;66637;-29.628;-49.938;2024-03-02T04:40:05;89.82;;;10.20;;
77522;SDS011;66637;-29.628;-49.938;2024-03-02T04:42:39;45.53;;;5.75;;
77522;SDS011;66637;-29.628;-49.938;2024-03-02T04:45:10;57.78;;;7.03;;
77522;SDS011;66637;-29.628;-49.938;2024-03-02T04:47:42;71.38;;;8.95;;
77522;SDS011;66637;-29.628;-49.938;2024-03-02T04:50:16;104.25;;;11.20;;
77522;SDS011;66637;-29.628;-49.938;2024-03-02T04:52:47;79.13;;;9.95;;
77522;SDS011;66637;-29.628;-49.938;2024-03-02T04:55:18;115.10;;;11.90;;
77522;SDS011;66637;-29.628;-49.938;2024-03-02T04:57:49;78.80;;;9.65;;
77522;SDS011;66637;-29.628;-49.938;2024-03-02T05:00:22;79.22;;;10.07;;
77522;SDS011;66637;-29.628;-49.938;2024-03-02T05:02:52;73.03;;;9.60;;
77522;SDS011;66637;-29.628;-49.938;2024-03-02T05:05:23;71.38;;;8.77;;
77522;SDS011;66637;-29.628;-49.938;2024-03-02T05:07:53;92.85;;;10.27;;
77522;SDS011;66637;-29.628;-49.938;2024-03-02T05:10:24;96.30;;;11.38;;
77522;SDS011;66637;-29.628;-49.938;2024-03-02T05:12:56;81.50;;;9.25;;
77522;SDS011;66637;-29.628;-49.938;2024-03-02T05:15:29;73.32;;;9.10;;
77522;SDS011;66637;-29.628;-49.938;2024-03-02T05:18:00;91.28;;;9.20;;
77522;SDS011;66637;-29.628;-49.938;2024-03-02T05:20:38;65.80;;;8.60;;
77522;SDS011;66637;-29.628;-49.938;2024-03-02T05:23:09;86.18;;;9.32;;
77522;SDS011;66637;-29.628;-49.938;2024-03-02T05:25:41;92.78;;;10.02;;
77522;SDS011;66637;-29.628;-49.938;2024-03-02T05:28:11;79.95;;;9.65;;
77522;SDS011;66637;-29.628;-49.938;2024-03-02T05:30:43;80.95;;;9.57;;
77522;SDS011;66637;-29.628;-49.938;2024-03-02T05:33:17;67.07;;;8.00;;
77522;SDS011;66637;-29.628;-49.938;2024-03-02T05:35:49;65.90;;;7.82;;
77522;SDS011;66637;-29.628;-49.938;2024-03-02T05:38:20;78.10;;;9.02;;
77522;SDS011;66637;-29.628;-49.938;2024-03-02T05:40:52;89.47;;;9.77;;
77522;SDS011;66637;-29.628;-49.938;2024-03-02T05:43:22;105.72;;;12.20;;
77522;SDS011;66637;-29.628;-49.938;2024-03-02T05:45:53;70.15;;;8.82;;
77522;SDS011;66637;-29.628;-49.938;2024-03-02T05:48:23;79.80;;;9.70;;
77522;SDS011;66637;-29.628;-49.938;2024-03-02T05:50:55;85.60;;;9.38;;
77522;SDS011;66637;-29.628;-49.938;2024-03-02T05:53:26;81.53;;;8.75;;
77522;SDS011;66637;-29.628;-49.938;2024-03-02T05:55:57;101.65;;;10.90;;
77522;SDS011;66637;-29.628;-49.938;2024-03-02T05:58:32;77.63;;;8.35;;
77522;SDS011;66637;-29.628;-49.938;2024-03-02T06:01:08;65.10;;;8.50;;
77522;SDS011;66637;-29.628;-49.938;2024-03-02T06:03:39;65.32;;;8.32;;
77522;SDS011;66637;-29.628;-49.938;2024-03-02T06:06:11;74.13;;;8.52;;
77522;SDS011;66637;-29.628;-49.938;2024-03-02T06:08:42;57.67;;;6.47;;
77522;SDS011;66637;-29.628;-49.938;2024-03-02T06:11:14;47.45;;;5.75;;
77522;SDS011;66637;-29.628;-49.938;2024-03-02T06:13:45;54.13;;;6.38;;
77522;SDS011;66637;-29.628;-49.938;2024-03-02T06:16:16;43.83;;;5.38;;
77522;SDS011;66637;-29.628;-49.938;2024-03-02T06:18:47;45.10;;;4.95;;
77522;SDS011;66637;-29.628;-49.938;2024-03-02T06:21:18;62.15;;;7.75;;
77522;SDS011;66637;-29.628;-49.938;2024-03-02T06:23:48;43.72;;;6.95;;
77522;SDS011;66637;-29.628;-49.938;2024-03-02T06:26:20;45.17;;;6.18;;
77522;SDS011;66637;-29.628;-49.938;2024-03-02T06:28:54;41.03;;;4.82;;
77522;SDS011;66637;-29.628;-49.938;2024-03-02T06:31:25;58.83;;;6.68;;
77522;SDS011;66637;-29.628;-49.938;2024-03-02T06:33:55;58.08;;;7.20;;
77522;SDS011;66637;-29.628;-49.938;2024-03-02T06:36:26;56.88;;;6.10;;
77522;SDS011;66637;-29.628;-49.938;2024-03-02T06:38:57;64.50;;;8.25;;
77522;SDS011;66637;-29.628;-49.938;2024-03-02T06:41:28;40.63;;;5.45;;
77522;SDS011;66637;-29.628;-49.938;2024-03-02T06:43:59;56.90;;;7.25;;
77522;SDS011;66637;-29.628;-49.938;2024-03-02T06:46:31;62.70;;;8.32;;
77522;SDS011;66637;-29.628;-49.938;2024-03-02T06:49:02;67.20;;;7.38;;
77522;SDS011;66637;-29.628;-49.938;2024-03-02T06:51:34;64.57;;;6.18;;
77522;SDS011;66637;-29.628;-49.938;2024-03-02T06:54:06;66.72;;;7.32;;
77522;SDS011;66637;-29.628;-49.938;2024-03-02T06:56:37;67.25;;;7.60;;
77522;SDS011;66637;-29.628;-49.938;2024-03-02T06:59:09;69.03;;;7.90;;
77522;SDS011;66637;-29.628;-49.938;2024-03-02T07:01:40;66.43;;;7.68;;
77522;SDS011;66637;-29.628;-49.938;2024-03-02T07:04:13;105.28;;;10.30;;
77522;SDS011;66637;-29.628;-49.938;2024-03-02T07:06:44;81.55;;;8.68;;
77522;SDS011;66637;-29.628;-49.938;2024-03-02T07:09:16;79.80;;;8.27;;
77522;SDS011;66637;-29.628;-49.938;2024-03-02T07:11:47;62.50;;;7.85;;
77522;SDS011;66637;-29.628;-49.938;2024-03-02T07:14:19;75.30;;;8.27;;
77522;SDS011;66637;-29.628;-49.938;2024-03-02T07:16:52;95.35;;;9.85;;
77522;SDS011;66637;-29.628;-49.938;2024-03-02T07:19:22;84.97;;;9.80;;
77522;SDS011;66637;-29.628;-49.938;2024-03-02T07:21:52;88.05;;;10.23;;
77522;SDS011;66637;-29.628;-49.938;2024-03-02T07:24:24;62.90;;;6.82;;
77522;SDS011;66637;-29.628;-49.938;2024-03-02T07:26:54;57.20;;;7.68;;
77522;SDS011;66637;-29.628;-49.938;2024-03-02T07:29:26;55.72;;;6.50;;
77522;SDS011;66637;-29.628;-49.938;2024-03-02T07:31:57;60.70;;;6.40;;
77522;SDS011;66637;-29.628;-49.938;2024-03-02T07:34:28;44.40;;;6.43;;
77522;SDS011;66637;-29.628;-49.938;2024-03-02T07:37:01;94.15;;;9.82;;
77522;SDS011;66637;-29.628;-49.938;2024-03-02T07:39:34;93.13;;;9.90;;
77522;SDS011;66637;-29.628;-49.938;2024-03-02T07:42:05;71.90;;;8.52;;
77522;SDS011;66637;-29.628;-49.938;2024-03-02T07:44:36;67.22;;;7.65;;
77522;SDS011;66637;-29.628;-49.938;2024-03-02T07:47:09;68.30;;;8.13;;
77522;SDS011;66637;-29.628;-49.938;2024-03-02T07:49:40;85.68;;;9.00;;
77522;SDS011;66637;-29.628;-49.938;2024-03-02T07:52:12;92.00;;;9.80;;
77522;SDS011;66637;-29.628;-49.938;2024-03-02T07:54:43;88.07;;;10.77;;
77522;SDS011;66637;-29.628;-49.938;2024-03-02T07:57:14;87.18;;;9.07;;
77522;SDS011;66637;-29.628;-49.938;2024-03-02T07:59:45;74.13;;;8.82;;
77522;SDS011;66637;-29.628;-49.938;2024-03-02T08:02:17;81.00;;;9.52;;
77522;SDS011;66637;-29.628;-49.938;2024-03-02T08:04:49;82.72;;;9.68;;
77522;SDS011;66637;-29.628;-49.938;2024-03-02T08:07:21;73.90;;;8.77;;
77522;SDS011;66637;-29.628;-49.938;2024-03-02T08:09:52;65.43;;;8.15;;
77522;SDS011;66637;-29.628;-49.938;2024-03-02T08:12:22;81.22;;;8.48;;
77522;SDS011;66637;-29.628;-49.938;2024-03-02T08:14:55;60.08;;;7.53;;
77522;SDS011;66637;-29.628;-49.938;2024-03-02T08:17:25;62.50;;;7.60;;
77522;SDS011;66637;-29.628;-49.938;2024-03-02T08:19:56;78.38;;;7.82;;
77522;SDS011;66637;-29.628;-49.938;2024-03-02T08:22:27;61.15;;;8.07;;
77522;SDS011;66637;-29.628;-49.938;2024-03-02T08:24:58;59.83;;;6.35;;
77522;SDS011;66637;-29.628;-49.938;2024-03-02T08:27:30;55.42;;;6.85;;
77522;SDS011;66637;-29.628;-49.938;2024-03-02T08:30:01;77.43;;;8.30;;
77522;SDS011;66637;-29.628;-49.938;2024-03-02T08:32:35;115.32;;;12.18;;
77522;SDS011;66637;-29.628;-49.938;2024-03-02T08:35:07;108.03;;;11.93;;
77522;SDS011;66637;-29.628;-49.938;2024-03-02T08:37:42;113.22;;;12.55;;
77522;SDS011;66637;-29.628;-49.938;2024-03-02T08:40:15;141.52;;;16.25;;
77522;SDS011;66637;-29.628;-49.938;2024-03-02T08:42:46;176.50;;;19.52;;
77522;SDS011;66637;-29.628;-49.938;2024-03-02T08:45:18;187.35;;;20.35;;
77522;SDS011;66637;-29.628;-49.938;2024-03-02T08:47:50;167.85;;;20.83;;
77522;SDS011;66637;-29.628;-49.938;2024-03-02T08:50:20;202.10;;;19.73;;
77522;SDS011;66637;-29.628;-49.938;2024-03-02T08:52:52;135.50;;;16.13;;
77522;SDS011;66637;-29.628;-49.938;2024-03-02T08:55:24;118.22;;;14.32;;
77522;SDS011;66637;-29.628;-49.938;2024-03-02T08:57:55;84.10;;;11.07;;
77522;SDS011;66637;-29.628;-49.938;2024-03-02T09:00:26;90.72;;;11.50;;
77522;SDS011;66637;-29.628;-49.938;2024-03-02T09:02:57;113.68;;;13.10;;
77522;SDS011;66637;-29.628;-49.938;2024-03-02T09:05:29;93.60;;;12.07;;
77522;SDS011;66637;-29.628;-49.938;2024-03-02T09:08:01;98.55;;;10.68;;
77522;SDS011;66637;-29.628;-49.938;2024-03-02T09:10:33;78.38;;;10.45;;
77522;SDS011;66637;-29.628;-49.938;2024-03-02T09:13:05;103.85;;;11.38;;
77522;SDS011;66637;-29.628;-49.938;2024-03-02T09:15:36;112.43;;;12.55;;
77522;SDS011;66637;-29.628;-49.938;2024-03-02T09:18:10;111.85;;;13.23;;
77522;SDS011;66637;-29.628;-49.938;2024-03-02T09:20:42;83.85;;;10.65;;
77522;SDS011;66637;-29.628;-49.938;2024-03-02T09:23:13;90.10;;;10.50;;
77522;SDS011;66637;-29.628;-49.938;2024-03-02T09:25:44;101.75;;;12.63;;
77522;SDS011;66637;-29.628;-49.938;2024-03-02T09:28:17;93.38;;;11.55;;
77522;SDS011;66637;-29.628;-49.938;2024-03-02T09:30:48;90.07;;;11.65;;
77522;SDS011;66637;-29.628;-49.938;2024-03-02T09:33:20;72.90;;;9.90;;
77522;SDS011;66637;-29.628;-49.938;2024-03-02T09:35:50;81.97;;;9.75;;
77522;SDS011;66637;-29.628;-49.938;2024-03-02T09:38:22;86.55;;;11.30;;
77522;SDS011;66637;-29.628;-49.938;2024-03-02T09:40:54;73.57;;;10.93;;
77522;SDS011;66637;-29.628;-49.938;2024-03-02T09:43:26;110.90;;;12.57;;
77522;SDS011;66637;-29.628;-49.938;2024-03-02T09:45:57;75.93;;;10.43;;
77522;SDS011;66637;-29.628;-49.938;2024-03-02T09:48:28;85.78;;;11.05;;
77522;SDS011;66637;-29.628;-49.938;2024-03-02T09:51:00;90.68;;;11.07;;
77522;SDS011;66637;-29.628;-49.938;2024-03-02T09:53:35;86.82;;;11.13;;
77522;SDS011;66637;-29.628;-49.938;2024-03-02T09:56:07;66.00;;;8.55;;
77522;SDS011;66637;-29.628;-49.938;2024-03-02T09:58:39;84.53;;;11.15;;
77522;SDS011;66637;-29.628;-49.938;2024-03-02T10:01:12;71.28;;;9.73;;
77522;SDS011;66637;-29.628;-49.938;2024-03-02T10:03:44;69.03;;;10.05;;
77522;SDS011;66637;-29.628;-49.938;2024-03-02T10:06:23;62.85;;;9.00;;
77522;SDS011;66637;-29.628;-49.938;2024-03-02T10:08:55;61.10;;;8.88;;
77522;SDS011;66637;-29.628;-49.938;2024-03-02T10:14:06;84.63;;;9.95;;
77522;SDS011;66637;-29.628;-49.938;2024-03-02T10:16:41;73.32;;;9.35;;
77522;SDS011;66637;-29.628;-49.938;2024-03-02T10:19:25;55.22;;;8.27;;
77522;SDS011;66637;-29.628;-49.938;2024-03-02T10:21:56;78.05;;;10.50;;
77522;SDS011;66637;-29.628;-49.938;2024-03-02T10:24:35;72.40;;;10.00;;
77522;SDS011;66637;-29.628;-49.938;2024-03-02T10:27:09;66.10;;;9.02;;
77522;SDS011;66637;-29.628;-49.938;2024-03-02T10:29:47;69.93;;;10.10;;
77522;SDS011;66637;-29.628;-49.938;2024-03-02T10:32:19;77.22;;;11.50;;
77522;SDS011;66637;-29.628;-49.938;2024-03-02T10:34:53;64.15;;;9.77;;
77522;SDS011;66637;-29.628;-49.938;2024-03-02T10:37:25;67.65;;;9.20;;
77522;SDS011;66637;-29.628;-49.938;2024-03-02T10:39:56;63.47;;;9.73;;
77522;SDS011;66637;-29.628;-49.938;2024-03-02T10:42:26;76.85;;;11.00;;
77522;SDS011;66637;-29.628;-49.938;2024-03-02T10:44:58;79.35;;;12.60;;
77522;SDS011;66637;-29.628;-49.938;2024-03-02T10:47:28;64.05;;;10.57;;
77522;SDS011;66637;-29.628;-49.938;2024-03-02T10:50:02;69.18;;;10.68;;
77522;SDS011;66637;-29.628;-49.938;2024-03-02T10:52:38;64.68;;;9.77;;
77522;SDS011;66637;-29.628;-49.938;2024-03-02T10:55:10;54.13;;;9.20;;
77522;SDS011;66637;-29.628;-49.938;2024-03-02T10:57:42;57.80;;;8.70;;
77522;SDS011;66637;-29.628;-49.938;2024-03-02T11:00:21;38.97;;;8.40;;
77522;SDS011;66637;-29.628;-49.938;2024-03-02T11:03:06;62.15;;;10.18;;
77522;SDS011;66637;-29.628;-49.938;2024-03-02T11:05:40;69.40;;;11.50;;
77522;SDS011;66637;-29.628;-49.938;2024-03-02T11:08:17;65.20;;;10.25;;
77522;SDS011;66637;-29.628;-49.938;2024-03-02T11:10:51;63.33;;;11.15;;
77522;SDS011;66637;-29.628;-49.938;2024-03-02T11:13:37;60.47;;;11.20;;
77522;SDS011;66637;-29.628;-49.938;2024-03-02T11:16:12;61.00;;;10.20;;
77522;SDS011;66637;-29.628;-49.938;2024-03-02T11:18:58;51.17;;;9.55;;
77522;SDS011;66637;-29.628;-49.938;2024-03-02T11:21:31;50.40;;;9.02;;
77522;SDS011;66637;-29.628;-49.938;2024-03-02T11:24:49;48.83;;;8.70;;
77522;SDS011;66637;-29.628;-49.938;2024-03-02T11:27:06;57.85;;;9.35;;
77522;SDS011;66637;-29.628;-49.938;2024-03-02T11:29:45;61.75;;;11.73;;
77522;SDS011;66637;-29.628;-49.938;2024-03-02T11:32:21;66.50;;;10.82;;
77522;SDS011;66637;-29.628;-49.938;2024-03-02T11:34:56;44.90;;;8.40;;
77522;SDS011;66637;-29.628;-49.938;2024-03-02T11:37:26;38.38;;;7.82;;
77522;SDS011;66637;-29.628;-49.938;2024-03-02T11:39:58;51.72;;;9.27;;
77522;SDS011;66637;-29.628;-49.938;2024-03-02T11:42:30;41.55;;;8.18;;
77522;SDS011;66637;-29.628;-49.938;2024-03-02T11:45:01;48.38;;;9.93;;
77522;SDS011;66637;-29.628;-49.938;2024-03-02T11:47:31;46.25;;;9.32;;
77522;SDS011;66637;-29.628;-49.938;2024-03-02T11:50:07;45.03;;;9.13;;
77522;SDS011;66637;-29.628;-49.938;2024-03-02T11:52:38;32.50;;;7.65;;
77522;SDS011;66637;-29.628;-49.938;2024-03-02T11:55:13;42.47;;;7.78;;
77522;SDS011;66637;-29.628;-49.938;2024-03-02T11:57:45;62.58;;;9.90;;
77522;SDS011;66637;-29.628;-49.938;2024-03-02T12:00:27;42.85;;;8.52;;
77522;SDS011;66637;-29.628;-49.938;2024-03-02T12:03:00;54.22;;;9.65;;
77522;SDS011;66637;-29.628;-49.938;2024-03-02T12:05:33;39.30;;;8.82;;
77522;SDS011;66637;-29.628;-49.938;2024-03-02T12:08:05;43.70;;;8.57;;
77522;SDS011;66637;-29.628;-49.938;2024-03-02T12:10:37;43.38;;;8.65;;
77522;SDS011;66637;-29.628;-49.938;2024-03-02T12:13:07;52.92;;;10.65;;
77522;SDS011;66637;-29.628;-49.938;2024-03-02T12:15:43;39.45;;;8.88;;
77522;SDS011;66637;-29.628;-49.938;2024-03-02T12:18:13;43.08;;;9.15;;
77522;SDS011;66637;-29.628;-49.938;2024-03-02T12:20:44;38.58;;;8.38;;
77522;SDS011;66637;-29.628;-49.938;2024-03-02T12:23:14;49.60;;;10.73;;
77522;SDS011;66637;-29.628;-49.938;2024-03-02T12:25:44;47.90;;;9.85;;
77522;SDS011;66637;-29.628;-49.938;2024-03-02T12:28:15;52.40;;;10.63;;
77522;SDS011;66637;-29.628;-49.938;2024-03-02T12:30:46;48.97;;;9.75;;
77522;SDS011;66637;-29.628;-49.938;2024-03-02T12:33:19;53.65;;;8.98;;
77522;SDS011;66637;-29.628;-49.938;2024-03-02T12:35:53;50.45;;;9.68;;
77522;SDS011;66637;-29.628;-49.938;2024-03-02T12:38:23;65.20;;;11.07;;
77522;SDS011;66637;-29.628;-49.938;2024-03-02T12:40:55;62.90;;;10.60;;
77522;SDS011;66637;-29.628;-49.938;2024-03-02T12:43:29;35.47;;;8.15;;
77522;SDS011;66637;-29.628;-49.938;2024-03-02T12:46:01;49.35;;;9.77;;
77522;SDS011;66637;-29.628;-49.938;2024-03-02T12:48:31;57.78;;;11.68;;
77522;SDS011;66637;-29.628;-49.938;2024-03-02T12:51:02;50.63;;;9.98;;
77522;SDS011;66637;-29.628;-49.938;2024-03-02T12:53:33;51.60;;;10.18;;
77522;SDS011;66637;-29.628;-49.938;2024-03-02T12:56:04;34.88;;;8.88;;
77522;SDS011;66637;-29.628;-49.938;2024-03-02T12:58:41;36.00;;;8.43;;
77522;SDS011;66637;-29.628;-49.938;2024-03-02T13:01:14;39.03;;;10.25;;
77522;SDS011;66637;-29.628;-49.938;2024-03-02T13:03:48;39.72;;;8.60;;
77522;SDS011;66637;-29.628;-49.938;2024-03-02T13:06:24;42.40;;;9.27;;
77522;SDS011;66637;-29.628;-49.938;2024-03-02T13:08:58;47.47;;;9.90;;
77522;SDS011;66637;-29.628;-49.938;2024-03-02T13:11:29;27.92;;;7.47;;
77522;SDS011;66637;-29.628;-49.938;2024-03-02T13:14:00;47.80;;;9.43;;
77522;SDS011;66637;-29.628;-49.938;2024-03-02T13:16:30;46.22;;;9.88;;
77522;SDS011;66637;-29.628;-49.938;2024-03-02T13:19:13;42.10;;;9.30;;
77522;SDS011;66637;-29.628;-49.938;2024-03-02T13:21:43;49.55;;;10.50;;
77522;SDS011;66637;-29.628;-49.938;2024-03-02T13:24:13;36.10;;;9.23;;
77522;SDS011;66637;-29.628;-49.938;2024-03-02T13:26:43;35.88;;;9.38;;
77522;SDS011;66637;-29.628;-49.938;2024-03-02T13:29:13;47.80;;;10.40;;
77522;SDS011;66637;-29.628;-49.938;2024-03-02T13:31:49;38.60;;;9.05;;
77522;SDS011;66637;-29.628;-49.938;2024-03-02T13:34:20;33.60;;;8.48;;
77522;SDS011;66637;-29.628;-49.938;2024-03-02T13:36:51;36.13;;;9.23;;
77522;SDS011;66637;-29.628;-49.938;2024-03-02T13:39:21;41.63;;;9.60;;
77522;SDS011;66637;-29.628;-49.938;2024-03-02T13:41:53;34.90;;;8.30;;
77522;SDS011;66637;-29.628;-49.938;2024-03-02T13:44:35;36.03;;;9.10;;
77522;SDS011;66637;-29.628;-49.938;2024-03-02T13:47:06;45.72;;;9.05;;
77522;SDS011;66637;-29.628;-49.938;2024-03-02T13:49:36;41.70;;;9.63;;
77522;SDS011;66637;-29.628;-49.938;2024-03-02T13:52:09;36.95;;;9.18;;
77522;SDS011;66637;-29.628;-49.938;2024-03-02T13:54:45;33.00;;;8.75;;
77522;SDS011;66637;-29.628;-49.938;2024-03-02T13:57:18;44.75;;;9.23;;
77522;SDS011;66637;-29.628;-49.938;2024-03-02T13:59:54;42.88;;;9.35;;
77522;SDS011;66637;-29.628;-49.938;2024-03-02T14:02:24;30.35;;;8.27;;
77522;SDS011;66637;-29.628;-49.938;2024-03-02T14:04:54;43.10;;;8.45;;
77522;SDS011;66637;-29.628;-49.938;2024-03-02T14:07:24;40.15;;;8.25;;
77522;SDS011;66637;-29.628;-49.938;2024-03-02T14:09:54;27.13;;;6.95;;
77522;SDS011;66637;-29.628;-49.938;2024-03-02T14:12:25;40.00;;;8.05;;
77522;SDS011;66637;-29.628;-49.938;2024-03-02T14:14:55;38.45;;;9.10;;
77522;SDS011;66637;-29.628;-49.938;2024-03-02T14:17:31;37.08;;;9.18;;
77522;SDS011;66637;-29.628;-49.938;2024-03-02T14:20:01;40.25;;;9.18;;
77522;SDS011;66637;-29.628;-49.938;2024-03-02T14:22:34;48.03;;;10.25;;
77522;SDS011;66637;-29.628;-49.938;2024-03-02T14:25:06;41.67;;;9.73;;
77522;SDS011;66637;-29.628;-49.938;2024-03-02T14:27:37;51.53;;;11.15;;
77522;SDS011;66637;-29.628;-49.938;2024-03-02T14:30:28;52.83;;;11.63;;
77522;SDS011;66637;-29.628;-49.938;2024-03-02T14:32:58;37.95;;;9.25;;